« 2014年12月 | トップページ | 2015年2月 »

2015年1月

2015/01/29

雪がない 富山空港 2015/1/29 thu

あなたは こない~♪ 1月も終わろうとしているのに、平野部には雪がありません。こんなんで、イインカー。北陸新幹線開業まで44日。B787が見れなくなるまで44日。

RJNT 290100Z VRB02KT 9999 FEW030 SCT050 02/M07 Q1029

20150129_rjnt_00n351up

UPS104 PANC-RJBB N351UP B767-34AFER

青空の中、綺麗なコントレールを引いて飛び交っている

20150129_rjnt_01ja821a

ギアダウン前にインサイト

20150129_rjnt_02ja821a

20150129_rjnt_03ja821a

20150129_rjnt_04ja821a

ANA883 RJTT-RJNT JA821A B787-8

誰か木蓮の枝折ったかー?

20150129_rjnt_05ja970a

JA970A AW139 JCG

一昨日から釣人捜索で飛来している海保さん。毎日ご苦労様。防災も最初出てたけど、警察は一度も飛ばなかった。139T君は、何しとん?

20150129_rjnt_06ja259c

JA259C C172

こんな天気で福井からチョイとやってこれるから、やっぱり気候異変だな。

20150129_rjnt_07ja6768

JA6768 B412 富山県消防防災

20150129_rjnt_08ja6768

砺波方面のS&Rから帰還の模様

20150129_rjnt_09ja821a

ANA886 RJNT-RJTT JA821A B787-8

RJNT 290300Z VRB03KT 9999 FEW030 SCT/// 03/M07 Q1027

20150129_rjnt_10ja970a

JA970A AW139 JCG

へりも人間もお腹をいっぱいにして、捜索しながら新潟にお帰り。捜索は一旦中断やろな。

20150129_rjnt_11ja259c

JA259C C172

20150129_rjnt_12ja6768

JA6768 B412 富山県消防防災

20150129_rjnt_13ja15an

20150129_rjnt_14ja15an

20150129_rjnt_15ja15an

20150129_rjnt_16ja15an

ADO120 RJCC-RJNT JA15AN B737-781

RJNT 290500Z 32005KT 270V350 9999 FEW030 BKN045 BKN/// 03/M07 Q1027

20150129_rjnt_17ja602a

20150129_rjnt_18ja602a

20150129_rjnt_19ja602a

ANA885 RJTT-RJNT JA602A B767-381

20150129_rjnt_20ja15an

AIRDOが見れるのも、後58日

20150129_rjnt_21ja15an

ADO121 RJNT-RJCC JA15AN B737-781

20150129_rjnt_22ja6768

JA6768

20150129_rjnt_23ja602a

ANA888 RJNT-RJTT JA602A B767-381

RJNT 290700Z 05005KT 010V100 9999 FEW030 BKN/// 03/M06 Q1026

20150129_rjnt_24ja8569

ながーく見慣れたB6も3/28まで

20150129_rjnt_25ja8569

ANA887 RJTT-RJNT JA8569 B767-381

続きを読む "雪がない 富山空港 2015/1/29 thu"

| | コメント (2) | トラックバック (0)

2015/01/25

定点 富山空港 2015/1/25 sun

今日は天神様。正月のお供えも、これでお片づけ。北陸新幹線開業まで50日をきった。で、冬ではない穏やかな空。巷では、ISISによる誘拐事件。

RJNT 250100Z VRB01KT 9999 FEW030 06/05 Q1028

20150125_rjnt_00ja6502

JA6502 AS350B3 AAK

20150125_rjnt_01ja9587

エンジン始動して、南の方へ出発です。

20150125_rjnt_02ja9587

JA9587 AS355F1 AAK

20150125_rjnt_03ja824a

ANA883 RJTT-RJNT JA824A B787-8

20150125_rjnt_04hl8267

20150125_rjnt_05hl8267

AAR128 RKSI-RJNT HL8267 A321-231

20150125_rjnt_06ja824a

20150125_rjnt_07ja824a

ANA886 RJNT-RJTT JA824A B787-8

20150125_rjnt_08ja03kg

JA03KG AW109SP KGK

富山空港の新顔。近々ドクターヘリとなるアグスタが立ち寄った。12月に新規登録されはばかりのおニュウだ。どうもこれは、函館拠点の道南ドクターヘリ向けの機体のようだ。

RJNT 250300Z 33005KT 270V030 9999 FEW015 SCT020 BKN/// 08/01 Q1027

20150125_rjnt_09hl8267

AAR127 RJNT-RKSI HL8267 A321-231

20150125_rjnt_10ja01an

20150125_rjnt_11ja01an

ADO120 RJCC-RJNT JA01AN B737-781

RJNT 250500Z 07004KT 020V120 9999 SCT025 BKN/// 08/02 Q1026

20150125_rjnt_12ja01an

先輩が監視中

20150125_rjnt_13ja01an

ADO121 RJNT-RJCC JA01AN B737-781

20150125_rjnt_14ja8669

20150125_rjnt_15ja8669

ANA885 RJTT-RJNT JA8669 B767-381

20150125_rjnt_16ja6502

JA6502 AS350B3 AAK

20150125_rjnt_17ja8669

ANA888 RJNT-RJTT JA8669 B767-381

RJNT 250700Z 05003KT 360V090 9999 FEW025 BKN/// 08/01 Q1026

20150125_rjnt_18ja602a

20150125_rjnt_19ja602a

ANA887 RJTT-RJNT JA602A B767-381

新幹線開通したら、もうB6も見れなくなる。毎日がお別れの日々に近づいている。

続きを読む "定点 富山空港 2015/1/25 sun"

| | コメント (0) | トラックバック (0)

2015/01/20

大寒 富山空港 2015/1/20 tue

二十四節気の大寒 ですが、雪も無くちっとも寒くないのです。

RJNT 200200Z 29005KT 250V320 8000 -SHRA FEW005 SCT010 BKN020 03/00 Q1028

20150120_rjnt_00ja812a

今回はチョット視点を変えて、レベルから・・

20150120_rjnt_01ja812a

ここにいると監視カメラがしきりに小生を追ってるのが判る

20150120_rjnt_02ja812a

でも、めげないのよねー

20150120_rjnt_03ja812a

ANA886 RJNT-RJTT JA812A B787-8

RJNT 200300Z 30004KT 210V330 8000 -SHRA FEW005 SCT010 BKN020 03/M01 Q1027

20150120_rjnt_04hl8266

只今、空港周辺の河川は、導水路変更の工事が盛ん。そんな現場をただ監視してるおっちゃんが軽四でいるのです。その仕事変ってくれぇぇ。

20150120_rjnt_05hl8266

AAR127 RJNT-RKSI HL8266 A321-231

20150120_rjnt_06ja6768

防災へりの出動準備が始まったので、ヘリパッドへ

20150120_rjnt_07ja6768

他の一般公開と同じ動作でテキパキとエンジンスタート

20150120_rjnt_08ja6768

すかさず乗り込み

20150120_rjnt_09ja6768

高岡方面へ JA6768・・・

JA6768 B412 富山県消防防災

RJNT 200400Z 18003KT 120V230 9999 FEW005 SCT020 BKN050 04/M02 Q1027

20150120_rjnt_10b5185

高速道路上では、点検工事が・・ オレもそこで見たいよー

20150120_rjnt_11b5185

CSH825 ZSPD-RJNT B-5185 B737-8Q8

RJNT 200500Z 15004KT 070V250 9999 FEW005 SCT030 04/M02 Q1027

20150120_rjnt_12ja8324

河の導水が変って・・ 

20150120_rjnt_13ja8324

ANA885 RJTT-RJNT JA8324 B767-381

20150120_rjnt_14b5185

20150120_rjnt_15b5185

CSH826 RJNT-ZSPD B-5185 B737-8Q8

20150120_rjnt_16ja8504

千歳の雪で1時間遅れ

ADO120 RJCC-RJNT JA8504 B737-54K

RJNT 200600Z 21005KT 180V240 9999 FEW020 SCT030 05/M03 Q1027

20150120_rjnt_17ja8504

20150120_rjnt_18ja8504

ADO121 RJNT-RJCC JA8504 B737-54K

20150120_rjnt_19ja8324

20150120_rjnt_20ja8324

ANA888 RJNT-RJTT JA8324 B767-381

RJNT 200700Z VRB01KT 9999 FEW020 SCT030 05/M03 Q1027

20150120_rjnt_21ja602a

20150120_rjnt_22ja602a

ANA887 RJTT-RJNT JA602A B767-381

20150120_rjnt_23ja6768

午後の出動から帰還。まもなく日没ですが、大分日差しが延びました。

20150120_rjnt_24ja6768

JA6768 B412 富山県消防防災

続きを読む "大寒 富山空港 2015/1/20 tue"

| | コメント (0) | トラックバック (0)

2015/01/18

定点 富山空港 2015/1/17 sat

魚津港からそのまま河原へ。途中雪の振りが強く、やばいなぁと思っていたら到着早々、南方がG/A。あっさり、成田へダイバートして帰ってこなかった。

RJNT 170244Z 27003KT 230V300 0400 SHSN VV002 00/M01 Q1014 RMK A2997

20150117_rjnt_00ja810a

南方がダイバートしてANA886がタクシーしたのですが・・・ これもあえなくGTB。

RJNT 170335Z 27003KT 230V350 1000 -SHSN VV005 00/M01 Q1015 RMK A2999

20150117_rjnt_01ja810a

小一時間後、再度出発です。

20150117_rjnt_02ja810a

20150117_rjnt_03ja810a

20150117_rjnt_04ja810a

ANA886 RJNT-RJTT JA810A B787-8

RJNT 170400Z VRB02KT 3000 -SHSN FEW005 SCT010 BKN020 00/00 Q1015

20150117_rjnt_05b1968

今日の上海はタイミングがよかった!

20150117_rjnt_06b1968

20150117_rjnt_07b1968

CSH825 ZSPD-RJNT B-1968 B737-8

RJNT 170511Z VRB01KT 2000 -SHSN FEW005 BKN010 BKN020 00/M01 Q1016 RMK 1CU005 5CU010 6CU020 A3002

20150117_rjnt_08b1968

出発は、テイクオフミニマギリギリ?

20150117_rjnt_09b1968

CSH826 RJNT-ZSPD B-1968

RJNT 170527Z VRB02KT 2000 -SHSN FEW005 SCT010 BKN020 00/M01 Q1016 RMK 1CU005 4CU010 6CU020 A3001

20150117_rjnt_10ja8595

いきなり北陸路線撤退? で、まあ青組に戻るだけか・・ 前のパターンになるかのを

20150117_rjnt_11ja8595

ADO120 RJCC-RJNT JA8595 B737-54K

RJNT 170538Z VRB04KT 5000 -SHSN FEW005 SCT010 BKN020 00/M02 Q1016 RMK 1CU005 4CU010 6CU020 A3002 2000E-S

20150117_rjnt_12ja8578

20150117_rjnt_13ja8578

ANA885 RJTT-RJNT JA8578 B767-381

RJNT 170614Z 26005KT 1000 -SHSN VV005 M00/M01 Q1017 RMK A3003

20150117_rjnt_14ja8595

ADO121 RJNT-RJCC JA8595 B737-54K

RJNT 170638Z 27003KT 220V310 2000 -SHSN FEW005 BKN010 BKN020 M00/M02

20150117_rjnt_15ja8578

20150117_rjnt_16ja8578

20150117_rjnt_17ja8578

20150117_rjnt_18ja8578

ANA888 RJNT-RJTT JA8578 B767-381

無事飛び立った888でしたが、この後雲の中に消えた途端に、ドカーンと一発。肝を冷やした。

雷神様に見つからないようにANA887を待っていたのだが、MEDICまで来て羽田に戻っていった。

その後のANA889がB3。本日神戸へ行幸されたお召機を随伴してから、富山に投入されたものだった。

以上

追記、この日は雪で散々だったが、翌日の18日は、朝方こそ降雪があったが立山連峰が美しい晴れ日。冬は猫の目だがや。

続きを読む "定点 富山空港 2015/1/17 sat"

| | コメント (0) | トラックバック (0)

2015/01/17

平成27年魚津消防署海上出初式 魚津市 2015/1/17 sat

年初の出初式の最後を飾るか・・・ 富山県東部消防組合消防本部魚津消防署の海上出初式(冬季海難救助訓練)にお出かけ

20150117_uozu_00dezome

場所は魚津港南区 すでに県内唯一の津波・大規模風水害対策車が準備中。

20150117_uozu_01dezome

風雪が降る中、本部は倉庫の中に

20150117_uozu_02dezome

裏には、参加車両が・・

20150117_uozu_03dezome

魚津市長が臨席して式辞から訓練開始

20150117_uozu_04dezome

救命索発射銃取扱訓練から

20150117_uozu_05dezome

これは圧縮空気式の銃 他に爆薬のもあった

20150117_uozu_06dezome

総合訓練の始まり。想定は操業中の漁船が離岸堤に衝突し、乗組員数名が海中に転落して救助を求めている。と、言うもの。

20150117_uozu_07dezome

海面に浮遊している2名を救助します。まずは救命索を打って・・・

20150117_uozu_08dezome

もう一方は、ボートで救命

20150117_uozu_09dezome

海中に沈んでいる人がいないか、フロッグマンが捜索。

20150117_uozu_10dezome

海中に沈んでいた救助者を収容

20150117_uozu_11dezome

ポンプ車が一斉放水の準備

20150117_uozu_12dezome

魚津署と消防団大町分団による一斉放水

20150117_uozu_13dezome

雪空に放水。訓練には救助艇「雄山丸」が参加の予定が、時化で参加できなかった。

20150117_uozu_14dezome

最後に消防長による講評で式展は、おしまい。

天気がよければ、よかったんだけどね。

20150117_uozu_15dezome

雪が激しくなってきた中、撤収作業中。

| | コメント (0) | トラックバック (0)

2015/01/14

冬山 富山空港 2015/1/14 wed

降雪の日隔が長くて、平野部ではほぼうっすら残るだけ。今日も立山連峰が美しい。しかし、夕方までは青空は持ちそうになさそうだ。

20150114_rjnt_00ja6502

JA6502 AS350B3 AAK

JA9587 AS355F1 AAK 怪しいカメラ搭載

今日もヘリパッド偵察から。折りしも朝日の350が帰ってきた。

20150114_rjnt_01crow

河原監視隊。やっぱりクロウは、怪しい?

RJNT 140200Z 21004KT 9999 FEW010 BKN180 06/M04 Q1028

20150114_rjnt_02b2296

20150114_rjnt_03b2296

CSN613 ZYTL-RJNT B-2296 A319-132

20150114_rjnt_04ja819a

ANA886 RJNT-RJTT JA819A B787-8

20150114_rjnt_05b2296

CSN614 RJNT-ZYTL B-2296 A319-132

20150114_rjnt_06ja6768

JA6768 B412 富山県消防防災

RJNT 140500Z 20003KT CAVOK 07/M03 Q1026

20150114_rjnt_07ja6502

JA6502 AS350B AAK

20150114_rjnt_08ja8579

20150114_rjnt_09ja8579

ANA885 RJTT-RJNT JA8579 B767-381

20150114_rjnt_10ja8504

20150114_rjnt_11ja8504

ADO121 RJNT-RJCC JA8504 B737-54K

20150114_rjnt_12tateyama

午前の河原パノラマ

続きを読む "冬山 富山空港 2015/1/14 wed"

| | コメント (0) | トラックバック (0)

2015/01/09

定点 富山空港 2015/1/9 fri

雪も小康状態で、チョコット河原へ

RJNT 090206Z VRB02KT 5000 -SHSN FEW002 SCT010 BKN020 01/01 Q1018 RMK 1ST002 3CU010 6CU020 A3007

20150109_rjnt_00ja819a

20150109_rjnt_01ja819a

20150109_rjnt_02ja819a

ANA886 RJNT-RJTT JA819A B787-8

20150109_rjnt_03hl7730

20150109_rjnt_04hl7730

20150109_rjnt_05hl7730

AAR127 RJNT-RKSI HL7730 A321-231

20150109_rjnt_06ja9639

JA9639 AS355F2 AAK

新潟のお台場系新潟総合テレビのカメラシップ

RJNT 090338Z 18003KT 140V210 3000 -SHSNRA SCT005 BKN010 BKN020 02/M00 Q1017 RMK 4CU005 5CU010 7CU020 A3003

20150109_rjnt_07b18615

20150109_rjnt_08b18615

CAL171 RJNT-RCTP B-18615 B737-809

RJNT 090500Z 14003KT 090V210 9999 -SHRA FEW005 SCT010 BKN020 02/01 Q1017

20150109_rjnt_09ja812a

20150109_rjnt_10ja812a

ANA885 RJTT-RJNT JA812A B787-8

20150109_rjnt_11ja6768

JA6768 B412 富山県消防防災

雪空の中出動だったが、天候悪化でほどなくして帰投した。

RJNT 090600Z 18005KT 110V220 6000 -SHRASN FEW005 BKN010 BKN020 02/M00 Q1017

20150109_rjnt_12ja8595

20150109_rjnt_13ja8595

ADO120 RJCC-RJNT JA8595 B737-54K

20150109_rjnt_14ja812a

20150109_rjnt_15ja812a

20150109_rjnt_16ja812a

ANA888 RJNT-RJTT JA812A B787-8

20150109_rjnt_17ja8595

20150109_rjnt_18ja8595

ADO121 RJNT-RJCC JA8595 B737-54K

RJNT 090700Z VRB02KT 6000 -SHRASN FEW005 SCT010 BKN020 01/M00 Q1017

20150109_rjnt_19ja8579

流行のYで、ダイレクトTOE。この後反転してハイステーションとなる。

20150109_rjnt_20ja8579

ANA887 RJTT-RJNT JA8579 B767-361

続きを読む "定点 富山空港 2015/1/9 fri"

| | コメント (0) | トラックバック (0)

2015/01/08

趣味的航空路誌改訂情報 2015/1/8 thu

趣味的航空路誌改訂情報 2015/1/8 thu
1月8日の航空路誌改訂から、めぼしいものをピックアップ。これはあくまでも小生が趣味的にメモとして記録しているものです。

○UPR の運用の改正

○函館VOR/DME(HWE)の制限事項の変更

○庄内空港における飛行場灯台の改正

○成田国際空港における局地交通諸規則の改正

○但馬飛行場における管理者の変更等

○鳥取空港における滑走路勾配に係る改正等

○東京ヘリポートにおけるエプロン及び誘導路の強度に係る改正等

□滑走路状態表示灯システム(RWSL)の導入について
導入予定空港(平成26年12月11日現在)
大阪国際空港(RJOO)及び那覇空港(ROAH)
RWSLを構成する灯火
(1)航空機接近警告灯(REL)
(2)離陸待機警告灯(THL)

□清水VORTAC(SUC)の運用休止及び代替措置について
清水VORTAC(SUC) 運用休止 2014.11.13 - 2015.2.4
代替に仮設足摺VOR/DME(AZE)が運用される
宮崎空港における標準計器到着方式の一時変更

□那覇VORTAC(NHC)の運用休止及び代替措置について
那覇VORTAC(NHC) 運用休止 2014.11.13 - 2015.3.4
代替に仮設沖縄VORTAC(OWC)が運用される
粟国空港における標準計器出発方式の一時変更
那覇空港における標準計器出発方式の一時変更
那覇空港における転移経路の一時変更
那覇空港における標準計器到着方式の一時変更
那覇空港における計器進入方式の一時設定
那覇空港における計器進入方式の一時変更

□浜松TACAN(LHT)の運用休止及び代替措置について
浜松TACAN(LHT) 運用休止 2014.12.11 - 2015.4.1
代替に仮設浜松TACAN(ZZT)が運用される

▽大阪ILS-LOC32L,ILS-DME32L(ISK) の運用休止及び代替措置について
大阪ILS-LOC32L,ILS-DME32L(ISK) 運用休止 2014.11.13 - 2015.2.4
代替に大阪可搬型LOC32L(ISK) 大阪可搬型DME32L(ISK) 大阪GP32L が運用される
大阪国際空港における標準計器到着方式の一時変更
大阪国際空港における計器進入方式の一時変更

□多良間VOR/DME(RME)の運用休止
多良間VOR/DME(RME) 運用休止 2015.5.28 - 2015.9.16
代替に仮設仲筋VOR/DME(NAE)が運用される

□青森VOR/DME(MRE)の運用休止
青森VOR/DME(MRE) 運用休止 2015.8.20 - 2015.11.12
代替に仮設大谷VOR/DME(OTE)が運用される

○SSRモードS地上レーダーの運用開始について
奄美 ARSR   2015.1.29
三郡山 ARSR 2015.2.26

●VOR・DME・NDB・マーカ廃止計画情報
2015.3.5予定
大子VOR、阿見VOR、銚子VOR、御宿VOR、館山VOR、新島VOR、東北VOR
三宅島DME、信貴DME、豊田DME

2015.5.28
羽田(22)-MM

平成27年度計画(案)
木更津VOR、美保VOR、大津VOR、信太VOR、淡路VOR、玖珂VOR、大分VOR、奄美VOR
秋田DME、東北DME、那須DME、佐倉DME、木更津DME、浜松DME、大津DME、信太DME、友DME、大分DME

平成28年度以降計画(案)
関宿VOR、横須賀VOR、鹿児島VOR、屋久島VOR、多良間VOR、与論VOR、南大東VOR


| | コメント (0) | トラックバック (0)

2015/01/05

定点 富山空港 2015/1/4 sun

この日は、富山市消防海上出初式を見に富山港に赴いた。当然、ここは富山空港のアプローチコース直下。出初式の時間前に丁度進入がある頃だ。

RJNT 040200Z 18008KT 6000 SHRA FEW005 SCT010 BKN020 03/M00 Q1015

20150104_rjnt_00hl8280

AAR128 RKSI-RJNT HL8280 A321-231

20150104_rjnt_01ja817a

アシアナアプローチをメディックでホールド中の787

20150104_rjnt_02ja817a

ANA883 RJTT-RJNT JA817A B787-8

RJNT 040500Z VRB03KT 9999 SHRA FEW010 SCT020 BKN030 04/00 Q1014

20150104_rjnt_03ja07an

20150104_rjnt_04ja07an

ADO120 RJCC-RJNT JA07AN B737-781

20150104_rjnt_05ja8677

20150104_rjnt_06ja8677

ANA885 RJTT-RJNT JA8677 B767-381

20150104_rjnt_07ja07an

20150104_rjnt_08ja07an

ADO121 RJNT-RJCC JA07AN B737-781

RJNT 040637Z 15005KT 110V190 8000 SHRA FEW010 SCT020 BKN030 03/01 Q1014 RMK 1CU010 4CU020 6CU030 A2995

20150104_rjnt_09ja8677

20150104_rjnt_10ja8677

20150104_rjnt_11ja8677

ANA888 RJNT-RJTT JA8677 B767-381

RJNT 040700Z 14005KT 110V200 9999 -SHRA FEW010 SCT020 BKN030 03/01 Q1014

20150104_rjnt_12ja8322

20150104_rjnt_13ja8322

20150104_rjnt_14ja8322

ANA887 RJTT-RJNT JA8322 B767-381

続きを読む "定点 富山空港 2015/1/4 sun"

| | コメント (0) | トラックバック (0)

2015/01/04

平成27年富山市消防海上出初式 富山港 2014/1/4 sun

新年も、海上出初式からイベント参加。今年は生憎の雨空で、背景が暗いのだが美しい放水に感激です。

20150104_iwase_00jintsu

いつもの富山市消防局富山北消防署海上分遣所

20150104_iwase_01jintsu

消防艇「神通」

20150104_iwase_02jintsu

周辺消防団も参集して

20150104_iwase_03jintsu

手前の4輪駆動トラックが新しい装備の模様(総務省消防庁調達富山北消防署所属)。どうもゾディアック救命艇を収容してるらしい。

20150104_iwase_04jintsu

今年は救命ボートによるデモが行われるようです。

20150104_iwase_05pc68

港口には伏木海上保安部のCL68「たちかぜ」

20150104_iwase_06jintsu

登舷礼

20150104_iwase_07boat

ボートによる救出。今まで行われていた潜水演技を無かった模様。

20150104_iwase_08jintsu

一斉放水に向けて準備中

20150104_iwase_09jintsu

今年一年の無火災を祈念して、一斉放水開始

20150104_iwase_10bundan

護岸でも放水開始。参加したのは浜黒崎分団、大広田分団、四方分団、草島分団の4台。

20150104_iwase_11jintsu

背景が暗いので、かえってカラー放水が目立つ。

20150104_iwase_12pc68

20150104_iwase_13pc68

海保艇は、手動なのね

20150104_iwase_14pc68

20150104_iwase_15jintsu

20150104_iwase_16jintsu

風が周って、自身の放水の中に・・・

20150104_iwase_17pc68

20150104_iwase_18jintsu

放水終了。ゆっくりと岸壁に戻ります。

20150104_iwase_19pc68

CL68「たちかぜ」は、パトロールをしながら帰投。

20150104_iwase_20jintsu

接岸して、式は終了。式が始まる前に雨が激しくなったため、消防防災へり「とやま」のフライトはキャンセルされた。残念!。

| | コメント (0) | トラックバック (0)

2015/01/01

初夢 富山空港 2015/1/1 thu

2015年 あけましておめでとうございます。

新春、初詣の後、河原詣でございます。昨年からの年越しは、YOU&ME 。大雪警報が発令され、自宅を出た頃から継続的に雪が降ってきたが・・・

RJNT 312222Z 22004KT 5000 -SHSN FEW005 BKN010 BKN020 M01/M02 Q1006 RMK 1CU005 5CU010 6CU020 A2973

20150101_rjnt_00srm

まだ、真っ暗な頃から除雪隊が驀進しています。

20150101_rjnt_01srm

SIチェッカーが何度も測定で走りまわる。いい数値が出ないと、再度除雪隊が除雪を実施している。

20150101_rjnt_02ja8674

年越しのYOU&MEもデアイシングして出発準備を進めている。

20150101_rjnt_03ja8674

7時を回って、空模様も小康状態で除雪隊引き上げ、滑走路オープン。

20150101_rjnt_04ja8674

プッシュバックをしていると・・・

20150101_rjnt_05ja8290

運良く羽田からの初便が、滑走路オープンを待ってアプローチ。

20150101_rjnt_06ja8290

20150101_rjnt_07ja8290

ANA881 RJTT-RJNT JA8290 B767-381

20150101_rjnt_08ja8290

お互い、あけおめだね。

20150101_rjnt_09ja8674

20150101_rjnt_10ja8674

20150101_rjnt_11ja8674

少し雪が降り出して・・

20150101_rjnt_12ja8674

RW20でエンジンランナップ・・・ ブレーキリリース

20150101_rjnt_13ja8674

俊足ですぐリフトオフ

20150101_rjnt_14ja8674

ANA882 RJNT-RJTT JA8674 B767-381

今年も、よい年になりますように。

RJNT 312300Z 13003KT 070V200 6000 -SHSN FEW005 BKN010 BKN020 M01/M02 Q1006

この後、先の881で来たJA8290が884として出発しようとした頃から、雪の振りが止まらなくなってきた。プッシュバックする所で、一反出発取りやめ。15時現在で、まだ留め置きだ。

20150101_rjnt_15pgum

882がエアボーンしてから、雪が断続的に降り注いで、今日のお目当てユナイテッドのチャーター待ち。しかーし、一向に滑走路閉鎖が解除できないので、早々に成田ダイバートしてしまった。

UAL1871 PGUM-RJNT(dvt RJAA) N14240 B737-824
RICHH A597 KEC V52 KCC V52 KMC Y45 OYABE

成田ダイバートしたUA機は、12時にはそのまま成田からグアムへ帰っていった。

UAL1872 RJAA-PGUM N14240 B737-824
PAPAS Y80 GYANG Y80 FITTO B586 TEMAR B586 WINZR

しばらく状況を見守っていたが、この雪では今日一日閉鎖になりそうな雰囲気なので、撤収とした。今年も何日河原詣をすることになるか・・ 北陸新幹線開業もあって、また一つの歴史の年になりそうです。

RJTT-RJNT
ANA     /882 JA8674
ANA881/      JA8290
            884 can
ANA883/886 can
ANA885/888 can
ANA887/890 can
ANA889/892 can
ANA891       can

RJCC-RJNT
ADO120/121 can

PGUM-RJNT
UAL1872/1862 dvt.RJAA can

| | コメント (0) | トラックバック (0)

« 2014年12月 | トップページ | 2015年2月 »